createdAt,value
2018-05-31T00:01:17.686Z,26.30
2018-05-31T00:03:20.590Z,26.30
2018-05-31T00:05:24.227Z,26.20
2018-05-31T00:07:27.117Z,26.20
2018-05-31T00:09:30.035Z,26.20
2018-05-31T00:11:32.983Z,26.20
2018-05-31T00:13:35.897Z,26.20
2018-05-31T00:15:39.005Z,26.20
2018-05-31T00:17:42.641Z,26.00
2018-05-31T00:19:45.518Z,26.10
2018-05-31T00:21:48.469Z,26.10
2018-05-31T00:23:52.121Z,26.00
2018-05-31T00:25:54.997Z,26.00
2018-05-31T00:27:57.928Z,26.00
2018-05-31T00:30:01.605Z,26.00
2018-05-31T00:32:04.481Z,26.00
2018-05-31T00:34:07.577Z,26.10
2018-05-31T00:36:10.497Z,26.00
2018-05-31T00:38:13.321Z,26.00
2018-05-31T00:40:16.252Z,26.00
2018-05-31T00:42:19.873Z,26.00
2018-05-31T00:44:22.745Z,26.00
2018-05-31T00:46:25.677Z,26.00
2018-05-31T00:48:28.652Z,26.00
2018-05-31T00:50:31.538Z,26.00
2018-05-31T00:52:34.627Z,26.00
2018-05-31T00:54:37.600Z,26.00
2018-05-31T00:56:40.463Z,26.00
2018-05-31T00:58:43.449Z,26.00
2018-05-31T01:00:46.449Z,26.00
2018-05-31T01:02:49.336Z,26.00
2018-05-31T01:04:52.434Z,26.00
2018-05-31T01:06:56.077Z,26.00
2018-05-31T01:08:58.948Z,26.00
2018-05-31T01:11:02.043Z,26.00
2018-05-31T01:13:04.966Z,26.00
2018-05-31T01:15:07.841Z,26.00
2018-05-31T01:17:11.132Z,25.90
2018-05-31T01:19:14.014Z,25.80
2018-05-31T01:21:18.414Z,25.60
2018-05-31T01:23:21.321Z,25.60
2018-05-31T01:25:24.235Z,25.60
2018-05-31T01:27:27.129Z,25.60
2018-05-31T01:29:30.057Z,25.50
2018-05-31T01:31:40.858Z,25.50
2018-05-31T01:33:44.667Z,25.50
2018-05-31T01:35:48.572Z,25.50
2018-05-31T01:37:52.377Z,25.50
2018-05-31T01:39:55.459Z,25.40
2018-05-31T01:41:59.175Z,25.40
2018-05-31T01:44:02.093Z,25.40
2018-05-31T01:46:05.008Z,25.50
2018-05-31T01:48:08.721Z,25.50
2018-05-31T01:50:11.676Z,25.50
2018-05-31T01:52:15.363Z,25.60
2018-05-31T01:54:20.241Z,25.60
2018-05-31T01:56:23.156Z,25.60
2018-05-31T01:58:26.058Z,25.60
2018-05-31T02:00:29.027Z,25.60
2018-05-31T02:02:31.952Z,25.60
2018-05-31T02:04:35.640Z,25.60
2018-05-31T02:06:39.461Z,25.60
2018-05-31T02:08:42.383Z,25.70
2018-05-31T02:10:45.427Z,25.70
2018-05-31T02:12:48.409Z,25.60
2018-05-31T02:14:52.213Z,25.50
2018-05-31T02:16:55.893Z,25.40
2018-05-31T02:18:59.628Z,25.40
2018-05-31T02:21:02.552Z,25.40
2018-05-31T02:23:05.457Z,25.40
2018-05-31T02:25:09.382Z,25.30
2018-05-31T02:27:12.308Z,25.30
2018-05-31T02:29:15.233Z,25.30
2018-05-31T02:31:18.196Z,25.40
2018-05-31T02:33:21.128Z,25.40
2018-05-31T02:35:24.040Z,25.40
2018-05-31T02:37:26.984Z,25.40
2018-05-31T02:39:30.063Z,25.40
2018-05-31T02:41:32.999Z,25.40
2018-05-31T02:43:35.944Z,25.40
2018-05-31T02:45:38.860Z,25.50
2018-05-31T02:47:41.768Z,25.40
2018-05-31T02:49:45.487Z,25.40
2018-05-31T02:51:48.478Z,25.40
2018-05-31T02:53:51.391Z,25.40
2018-05-31T02:55:54.344Z,25.40
2018-05-31T02:57:57.261Z,25.40
2018-05-31T03:00:00.183Z,25.30
2018-05-31T03:02:03.160Z,25.30
2018-05-31T03:04:06.859Z,25.40
2018-05-31T03:06:10.541Z,25.40
2018-05-31T03:08:13.940Z,25.30
2018-05-31T03:10:16.916Z,25.40
2018-05-31T03:12:19.816Z,25.40
2018-05-31T03:14:22.773Z,25.40
2018-05-31T03:16:25.696Z,25.40
2018-05-31T03:18:28.615Z,25.40
2018-05-31T03:20:31.677Z,25.30
2018-05-31T03:22:34.609Z,25.30
2018-05-31T03:24:37.526Z,25.30
2018-05-31T03:26:40.475Z,25.30
2018-05-31T03:28:44.176Z,25.20
2018-05-31T03:30:47.192Z,25.20
2018-05-31T03:32:50.143Z,25.20
2018-05-31T03:34:53.841Z,25.20
2018-05-31T03:36:56.770Z,25.20
2018-05-31T03:38:59.716Z,25.20
2018-05-31T03:41:03.428Z,25.20
2018-05-31T03:43:07.112Z,25.20
2018-05-31T03:45:11.043Z,25.20
2018-05-31T03:47:13.968Z,25.20
2018-05-31T03:49:16.897Z,25.20
2018-05-31T03:51:20.714Z,25.20
2018-05-31T03:53:23.739Z,25.20
2018-05-31T03:55:26.656Z,25.20
2018-05-31T03:57:30.389Z,25.10
2018-05-31T03:59:33.316Z,25.10
2018-05-31T04:01:36.249Z,25.10
2018-05-31T04:03:39.957Z,25.10
2018-05-31T04:05:42.906Z,25.10
2018-05-31T04:07:46.583Z,25.00
2018-05-31T04:09:49.529Z,25.00
2018-05-31T04:11:52.440Z,25.00
2018-05-31T04:13:55.469Z,25.00
2018-05-31T04:15:59.288Z,25.00
2018-05-31T04:18:02.195Z,24.90
2018-05-31T04:20:05.105Z,24.90
2018-05-31T04:22:08.526Z,24.90
2018-05-31T04:24:12.207Z,24.90
2018-05-31T04:26:15.284Z,24.90
2018-05-31T04:28:19.113Z,24.90
2018-05-31T04:30:22.804Z,24.90
2018-05-31T04:32:26.514Z,24.90
2018-05-31T04:34:29.480Z,24.90
2018-05-31T04:36:33.167Z,24.90
2018-05-31T04:38:36.975Z,24.90
2018-05-31T04:40:40.699Z,24.90
2018-05-31T04:42:43.626Z,24.90
2018-05-31T04:44:46.564Z,24.80
2018-05-31T04:46:49.512Z,24.80
2018-05-31T04:48:52.456Z,24.80
2018-05-31T04:50:55.407Z,24.80
2018-05-31T04:52:59.205Z,24.90
2018-05-31T04:55:02.879Z,24.90
2018-05-31T04:57:05.904Z,24.90
2018-05-31T04:59:08.860Z,24.90
2018-05-31T05:01:12.549Z,24.90
2018-05-31T05:03:15.529Z,24.90
2018-05-31T05:05:18.468Z,24.90
2018-05-31T05:07:21.422Z,24.90
2018-05-31T05:09:25.108Z,25.00
2018-05-31T05:11:28.945Z,25.00
2018-05-31T05:13:31.868Z,25.00
2018-05-31T05:15:34.801Z,25.00
2018-05-31T05:17:37.747Z,25.00
2018-05-31T05:19:42.174Z,25.00
2018-05-31T05:21:45.844Z,25.00
2018-05-31T05:23:48.881Z,25.00
2018-05-31T05:25:51.854Z,25.00
2018-05-31T05:27:54.781Z,25.00
2018-05-31T05:29:57.874Z,25.00
2018-05-31T05:32:00.813Z,25.00
2018-05-31T05:34:03.731Z,24.90
2018-05-31T05:36:06.696Z,24.90
2018-05-31T05:38:09.606Z,24.90
2018-05-31T05:40:12.508Z,24.90
2018-05-31T05:42:16.639Z,24.90
2018-05-31T05:44:20.320Z,24.90
2018-05-31T05:46:24.000Z,24.90
2018-05-31T05:48:26.978Z,24.90
2018-05-31T05:50:29.901Z,24.90
2018-05-31T05:52:33.589Z,24.90
2018-05-31T05:54:37.316Z,24.90
2018-05-31T05:56:40.256Z,24.90
2018-05-31T05:58:43.372Z,24.90
2018-05-31T06:00:46.661Z,24.90
2018-05-31T06:02:50.351Z,24.90
2018-05-31T06:04:54.061Z,25.00
2018-05-31T06:06:57.764Z,25.00
2018-05-31T06:09:01.549Z,25.00
2018-05-31T06:11:05.236Z,25.10
2018-05-31T06:13:08.195Z,25.10
2018-05-31T06:15:11.228Z,25.10
2018-05-31T06:17:14.914Z,25.30
2018-05-31T06:19:18.936Z,25.30
2018-05-31T06:21:22.608Z,25.40
2018-05-31T06:23:25.535Z,25.40
2018-05-31T06:25:28.480Z,25.50
2018-05-31T06:27:32.167Z,25.50
2018-05-31T06:29:35.207Z,25.50
2018-05-31T06:31:38.369Z,25.50
2018-05-31T06:33:42.040Z,25.50
2018-05-31T06:35:44.957Z,25.50
2018-05-31T06:37:48.868Z,25.50
2018-05-31T06:39:51.795Z,25.50
2018-05-31T06:41:54.713Z,25.50
2018-05-31T06:43:58.446Z,25.60
2018-05-31T06:46:01.511Z,25.60
2018-05-31T06:48:04.449Z,25.60
2018-05-31T06:50:07.421Z,25.60
2018-05-31T06:52:10.331Z,25.60
2018-05-31T06:54:14.879Z,25.70
2018-05-31T06:56:18.127Z,25.70
2018-05-31T06:58:21.142Z,25.70
2018-05-31T07:00:24.842Z,25.60
2018-05-31T07:02:27.815Z,25.60
2018-05-31T07:04:31.522Z,25.60
2018-05-31T07:06:34.458Z,25.60
2018-05-31T07:08:37.425Z,25.70
2018-05-31T07:10:40.331Z,25.70
2018-05-31T07:12:43.355Z,25.70
2018-05-31T07:14:47.056Z,25.70
2018-05-31T07:16:50.005Z,25.80
2018-05-31T07:18:52.924Z,25.80
2018-05-31T07:20:56.038Z,25.90
2018-05-31T07:22:58.939Z,25.90
2018-05-31T07:25:01.970Z,26.00
2018-05-31T07:27:05.665Z,26.10
2018-05-31T07:29:09.349Z,26.20
2018-05-31T07:31:13.038Z,26.20
2018-05-31T07:33:16.465Z,26.20
2018-05-31T07:35:19.392Z,26.20
2018-05-31T07:37:23.154Z,26.20
2018-05-31T07:39:26.237Z,26.20
2018-05-31T07:41:29.162Z,26.20
2018-05-31T07:43:32.198Z,26.30
2018-05-31T07:45:35.904Z,26.30
2018-05-31T07:47:38.860Z,26.30
2018-05-31T07:49:42.536Z,26.40
2018-05-31T07:51:45.665Z,26.40
2018-05-31T07:53:49.345Z,26.50
2018-05-31T07:55:52.349Z,26.50
2018-05-31T07:57:56.152Z,26.50
2018-05-31T07:59:59.818Z,26.50
2018-05-31T08:02:02.835Z,26.50
2018-05-31T08:04:06.707Z,26.60
2018-05-31T08:06:09.617Z,26.60
2018-05-31T08:08:13.295Z,26.60
2018-05-31T08:10:17.228Z,26.70
2018-05-31T08:12:20.158Z,26.70
2018-05-31T08:14:23.188Z,26.70
2018-05-31T08:16:26.960Z,26.70
2018-05-31T08:18:29.877Z,26.70
2018-05-31T08:20:32.812Z,26.70
2018-05-31T08:22:35.849Z,26.70
2018-05-31T08:24:38.764Z,26.80
2018-05-31T08:26:41.676Z,26.80
2018-05-31T08:28:44.888Z,26.80
2018-05-31T08:30:48.585Z,26.80
2018-05-31T08:32:52.303Z,26.80
2018-05-31T08:34:55.388Z,26.80
2018-05-31T08:36:58.305Z,26.80
2018-05-31T08:39:01.223Z,26.80
2018-05-31T08:41:04.967Z,26.90
2018-05-31T08:43:07.872Z,26.80
2018-05-31T08:45:10.788Z,26.90
2018-05-31T08:47:14.555Z,26.90
2018-05-31T08:49:17.457Z,26.90
2018-05-31T08:51:20.466Z,26.90
2018-05-31T08:53:24.268Z,26.90
2018-05-31T08:55:27.940Z,26.90
2018-05-31T08:57:30.951Z,26.90
2018-05-31T08:59:34.645Z,27.00
2018-05-31T09:01:38.320Z,27.00
2018-05-31T09:03:41.259Z,27.00
2018-05-31T09:05:44.190Z,27.00
2018-05-31T09:07:47.172Z,27.10
2018-05-31T09:09:50.089Z,27.10
2018-05-31T09:11:53.040Z,27.10
2018-05-31T09:13:56.715Z,27.10
2018-05-31T09:15:59.629Z,27.10
2018-05-31T09:18:03.549Z,27.20
2018-05-31T09:20:07.212Z,27.20
2018-05-31T09:22:10.229Z,27.10
2018-05-31T09:24:14.030Z,27.20
2018-05-31T09:26:17.713Z,27.20
2018-05-31T09:28:21.392Z,27.30
2018-05-31T09:30:24.328Z,27.20
2018-05-31T09:32:27.251Z,27.30
2018-05-31T09:34:30.280Z,27.30
2018-05-31T09:36:34.489Z,27.30
2018-05-31T09:38:38.152Z,27.30
2018-05-31T09:40:41.079Z,27.30
2018-05-31T09:42:44.167Z,27.30
2018-05-31T09:44:47.107Z,27.40
2018-05-31T09:46:50.121Z,27.40
2018-05-31T09:48:53.821Z,27.40
2018-05-31T09:50:57.499Z,27.50
2018-05-31T09:53:00.503Z,27.40
2018-05-31T09:55:04.228Z,27.50
2018-05-31T09:57:07.128Z,27.50
2018-05-31T09:59:10.036Z,27.50
2018-05-31T10:01:13.166Z,27.60
2018-05-31T10:03:16.077Z,27.70
2018-05-31T10:05:19.048Z,27.70
2018-05-31T10:07:23.024Z,27.70
2018-05-31T10:09:26.696Z,27.80
2018-05-31T10:11:29.622Z,27.80
2018-05-31T10:13:32.579Z,27.80
2018-05-31T10:15:36.276Z,27.80
2018-05-31T10:17:39.966Z,27.90
2018-05-31T10:19:43.413Z,27.80
2018-05-31T10:21:46.341Z,27.90
2018-05-31T10:23:50.028Z,27.90
2018-05-31T10:25:52.968Z,27.90
2018-05-31T10:27:55.893Z,27.90
2018-05-31T10:29:58.800Z,27.90
2018-05-31T10:32:02.521Z,28.00
2018-05-31T10:34:07.546Z,28.00
2018-05-31T10:36:10.456Z,28.00
2018-05-31T10:38:14.589Z,28.10
2018-05-31T10:40:17.619Z,28.10
2018-05-31T10:42:20.535Z,28.10
2018-05-31T10:44:23.579Z,28.10
2018-05-31T10:46:27.296Z,28.20
2018-05-31T10:48:30.955Z,28.20
2018-05-31T10:50:33.960Z,28.20
2018-05-31T10:52:37.643Z,28.20
2018-05-31T10:54:41.361Z,28.30
2018-05-31T10:56:44.548Z,28.20
2018-05-31T10:58:48.228Z,28.30
2018-05-31T11:00:51.931Z,28.30
2018-05-31T11:02:54.889Z,28.30
2018-05-31T11:04:57.792Z,28.30
2018-05-31T11:07:01.471Z,28.40
2018-05-31T11:09:05.622Z,28.40
2018-05-31T11:11:09.321Z,28.40
2018-05-31T11:13:13.123Z,28.50
2018-05-31T11:15:16.833Z,28.50
2018-05-31T11:17:20.521Z,28.50
2018-05-31T11:19:24.189Z,28.60
2018-05-31T11:21:28.661Z,28.60
2018-05-31T11:23:31.668Z,28.60
2018-05-31T11:25:34.595Z,28.60
2018-05-31T11:27:37.577Z,28.70
2018-05-31T11:29:40.515Z,28.70
2018-05-31T11:31:43.441Z,28.70
2018-05-31T11:33:47.564Z,28.80
2018-05-31T11:35:51.244Z,28.80
2018-05-31T11:37:55.062Z,28.80
2018-05-31T11:39:58.833Z,28.80
2018-05-31T11:42:01.852Z,28.80
2018-05-31T11:44:05.535Z,28.80
2018-05-31T11:46:09.760Z,28.90
2018-05-31T11:48:12.660Z,28.90
2018-05-31T11:50:15.583Z,28.90
2018-05-31T11:52:18.522Z,28.90
2018-05-31T11:54:22.400Z,28.90
2018-05-31T11:56:26.071Z,28.90
2018-05-31T11:58:29.039Z,28.90
2018-05-31T12:00:32.001Z,29.00
2018-05-31T12:02:35.633Z,29.00
2018-05-31T12:04:38.773Z,29.00
2018-05-31T12:06:41.741Z,29.00
2018-05-31T12:08:45.416Z,29.10
2018-05-31T12:10:49.910Z,29.10
2018-05-31T12:12:52.810Z,29.00
2018-05-31T12:14:56.528Z,29.10
2018-05-31T12:17:00.285Z,29.10
2018-05-31T12:19:03.196Z,29.10
2018-05-31T12:21:06.111Z,29.20
2018-05-31T12:23:09.905Z,29.20
2018-05-31T12:25:13.601Z,29.30
2018-05-31T12:27:17.288Z,29.30
2018-05-31T12:29:21.005Z,29.30
2018-05-31T12:31:23.961Z,29.30
2018-05-31T12:33:28.404Z,29.30
2018-05-31T12:35:32.616Z,29.30
2018-05-31T12:37:36.298Z,29.30
2018-05-31T12:39:39.991Z,29.30
2018-05-31T12:41:43.112Z,29.30
2018-05-31T12:43:46.094Z,29.40
2018-05-31T12:45:49.857Z,29.40
2018-05-31T12:47:53.080Z,29.50
2018-05-31T12:49:56.775Z,29.50
2018-05-31T12:52:00.439Z,29.50
2018-05-31T12:54:03.572Z,29.50
2018-05-31T12:56:06.484Z,29.60
2018-05-31T12:58:09.429Z,29.60
2018-05-31T13:00:12.565Z,29.60
2018-05-31T13:02:15.495Z,29.70
2018-05-31T13:04:19.173Z,29.70
2018-05-31T13:06:22.290Z,29.70
2018-05-31T13:08:25.204Z,29.70
2018-05-31T13:10:28.119Z,29.80
2018-05-31T13:12:31.232Z,29.80
2018-05-31T13:14:34.144Z,29.80
2018-05-31T13:16:37.064Z,29.90
2018-05-31T13:18:40.180Z,29.90
2018-05-31T13:20:43.847Z,30.00
2018-05-31T13:22:47.540Z,30.00
2018-05-31T13:24:50.470Z,30.00
2018-05-31T13:26:53.539Z,30.10
2018-05-31T13:28:57.213Z,30.10
2018-05-31T13:31:00.171Z,30.00
2018-05-31T13:33:03.084Z,30.00
2018-05-31T13:35:06.049Z,30.00
2018-05-31T13:37:08.977Z,30.00
2018-05-31T13:39:12.974Z,30.00
2018-05-31T13:41:16.640Z,30.00
2018-05-31T13:43:19.598Z,30.00
2018-05-31T13:45:22.511Z,30.00
2018-05-31T13:47:25.430Z,30.10
2018-05-31T13:49:28.405Z,30.20
2018-05-31T13:51:32.085Z,30.30
2018-05-31T13:53:35.780Z,30.40
2018-05-31T13:55:38.727Z,30.30
2018-05-31T13:57:41.663Z,30.50
2018-05-31T13:59:45.483Z,30.50
2018-05-31T14:01:48.907Z,30.60
2018-05-31T14:03:52.886Z,30.60
2018-05-31T14:05:56.538Z,30.50
2018-05-31T14:07:59.545Z,30.50
2018-05-31T14:10:03.220Z,30.60
2018-05-31T14:12:07.672Z,30.60
2018-05-31T14:14:10.632Z,30.60
2018-05-31T14:16:14.351Z,30.70
2018-05-31T14:18:18.051Z,30.70
2018-05-31T14:20:21.767Z,30.80
2018-05-31T14:22:24.839Z,30.80
2018-05-31T14:24:28.513Z,30.80
2018-05-31T14:26:31.452Z,30.80
2018-05-31T14:28:34.381Z,30.80
2018-05-31T14:30:38.083Z,30.90
2018-05-31T14:32:41.066Z,30.90
2018-05-31T14:34:43.970Z,30.90
2018-05-31T14:36:47.648Z,31.00
2018-05-31T14:38:50.581Z,31.00
2018-05-31T14:40:53.524Z,31.00
2018-05-31T14:42:57.198Z,30.90
2018-05-31T14:45:00.152Z,30.90
2018-05-31T14:47:03.059Z,31.00
2018-05-31T14:49:06.005Z,31.00
2018-05-31T14:51:09.016Z,31.00
2018-05-31T14:53:11.934Z,31.00
2018-05-31T14:55:15.603Z,31.00
2018-05-31T14:57:18.825Z,31.00
2018-05-31T14:59:22.540Z,30.90
2018-05-31T15:01:25.447Z,30.90
2018-05-31T15:03:28.492Z,30.90
2018-05-31T15:05:32.183Z,30.90
2018-05-31T15:07:35.386Z,30.90
2018-05-31T15:09:38.321Z,30.90
2018-05-31T15:11:41.238Z,30.90
2018-05-31T15:13:44.168Z,30.90
2018-05-31T15:15:47.123Z,30.90
2018-05-31T15:17:50.049Z,30.90
2018-05-31T15:19:53.009Z,30.90
2018-05-31T15:21:56.036Z,30.90
2018-05-31T15:23:59.714Z,30.90
2018-05-31T15:26:02.676Z,30.90
2018-05-31T15:28:05.705Z,30.90
2018-05-31T15:30:08.670Z,30.90
2018-05-31T15:32:11.581Z,30.80
2018-05-31T15:34:15.384Z,30.80
2018-05-31T15:36:19.069Z,30.90
2018-05-31T15:38:22.745Z,30.80
2018-05-31T15:40:25.988Z,30.90
2018-05-31T15:42:28.892Z,30.90
2018-05-31T15:44:31.787Z,30.80
2018-05-31T15:46:34.742Z,30.80
2018-05-31T15:48:37.669Z,30.80
2018-05-31T15:50:40.647Z,30.80
2018-05-31T15:52:43.780Z,30.80
2018-05-31T15:54:46.717Z,30.80
2018-05-31T15:56:49.629Z,30.80
2018-05-31T15:58:53.076Z,30.80
2018-05-31T16:00:56.001Z,30.80
2018-05-31T16:02:59.684Z,30.80
2018-05-31T16:05:03.406Z,30.80
2018-05-31T16:07:06.419Z,30.80
2018-05-31T16:09:09.347Z,30.80
2018-05-31T16:11:12.272Z,30.70
2018-05-31T16:13:15.234Z,30.70
2018-05-31T16:15:18.907Z,30.60
2018-05-31T16:17:22.335Z,30.60
2018-05-31T16:19:25.306Z,30.60
2018-05-31T16:21:28.980Z,30.50
2018-05-31T16:23:31.925Z,30.50
2018-05-31T16:25:34.832Z,30.50
2018-05-31T16:27:37.764Z,30.50
2018-05-31T16:29:40.709Z,30.60
2018-05-31T16:31:43.728Z,30.60
2018-05-31T16:33:46.656Z,30.60
2018-05-31T16:35:49.675Z,30.60
2018-05-31T16:37:53.363Z,30.70
2018-05-31T16:39:57.056Z,30.80
2018-05-31T16:42:01.205Z,30.90
2018-05-31T16:44:04.873Z,30.90
2018-05-31T16:46:09.294Z,30.90
2018-05-31T16:48:13.841Z,30.90
2018-05-31T16:50:16.751Z,30.90
2018-05-31T16:52:19.657Z,30.90
2018-05-31T16:54:22.794Z,30.80
2018-05-31T16:56:25.719Z,30.80
2018-05-31T16:58:28.653Z,30.80
2018-05-31T17:00:31.830Z,30.80
2018-05-31T17:02:35.491Z,30.70
2018-05-31T17:04:38.432Z,30.70
2018-05-31T17:06:41.369Z,30.70
2018-05-31T17:08:44.300Z,30.70
2018-05-31T17:10:47.219Z,30.70
2018-05-31T17:12:50.166Z,30.60
2018-05-31T17:14:53.181Z,30.60
2018-05-31T17:16:56.067Z,30.60
2018-05-31T17:18:59.017Z,30.60
2018-05-31T17:21:02.050Z,30.50
2018-05-31T17:23:04.981Z,30.50
2018-05-31T17:25:08.020Z,30.50
2018-05-31T17:27:10.921Z,30.50
2018-05-31T17:29:14.595Z,30.40
2018-05-31T17:31:18.848Z,30.40
2018-05-31T17:33:21.767Z,30.40
2018-05-31T17:35:24.692Z,30.40
2018-05-31T17:37:28.400Z,30.40
2018-05-31T17:39:32.060Z,30.30
2018-05-31T17:41:35.075Z,30.40
2018-05-31T17:43:39.287Z,30.30
2018-05-31T17:45:42.974Z,30.30
2018-05-31T17:47:46.653Z,30.30
2018-05-31T17:49:49.596Z,30.30
2018-05-31T17:51:52.549Z,30.40
2018-05-31T17:53:56.230Z,30.30
2018-05-31T17:55:59.198Z,30.30
2018-05-31T17:58:03.853Z,30.30
2018-05-31T18:00:07.057Z,30.30
2018-05-31T18:02:10.103Z,30.30
2018-05-31T18:04:13.016Z,30.30
2018-05-31T18:06:16.787Z,30.30
2018-05-31T18:08:20.528Z,30.30
2018-05-31T18:10:23.475Z,30.30
2018-05-31T18:12:27.193Z,30.30
2018-05-31T18:14:31.244Z,30.30
2018-05-31T18:16:34.192Z,30.30
2018-05-31T18:18:37.148Z,30.30
2018-05-31T18:20:40.943Z,30.30
2018-05-31T18:22:43.895Z,30.30
2018-05-31T18:24:46.829Z,30.30
2018-05-31T18:26:50.634Z,30.30
2018-05-31T18:28:54.317Z,30.20
2018-05-31T18:30:58.033Z,30.20
2018-05-31T18:33:01.751Z,30.10
2018-05-31T18:35:04.668Z,30.10
2018-05-31T18:37:07.600Z,30.20
2018-05-31T18:39:11.100Z,30.10
2018-05-31T18:41:14.021Z,30.10
2018-05-31T18:43:17.059Z,30.10
2018-05-31T18:45:20.773Z,30.00
2018-05-31T18:47:24.528Z,29.90
2018-05-31T18:49:27.396Z,29.90
2018-05-31T18:51:30.526Z,29.90
2018-05-31T18:53:34.215Z,29.90
2018-05-31T18:55:37.121Z,29.80
2018-05-31T18:57:40.191Z,29.80
2018-05-31T18:59:43.112Z,29.80
2018-05-31T19:01:46.035Z,29.80
2018-05-31T19:03:49.789Z,29.70
2018-05-31T19:05:52.744Z,29.70
2018-05-31T19:07:56.420Z,29.60
2018-05-31T19:10:01.086Z,29.50
2018-05-31T19:12:04.014Z,29.60
2018-05-31T19:14:06.936Z,29.50
2018-05-31T19:16:10.040Z,29.50
2018-05-31T19:18:18.528Z,29.40
2018-05-31T19:20:21.449Z,29.40
2018-05-31T19:22:24.535Z,29.30
2018-05-31T19:24:43.097Z,29.30
2018-05-31T19:26:46.129Z,29.30
2018-05-31T19:28:49.309Z,29.20
2018-05-31T19:30:58.744Z,29.10
2018-05-31T19:33:02.428Z,29.00
2018-05-31T19:35:05.407Z,29.00
2018-05-31T19:37:13.951Z,29.00
2018-05-31T19:39:16.873Z,29.00
2018-05-31T19:41:20.213Z,28.90
2018-05-31T19:43:29.586Z,28.70
2018-05-31T19:45:32.517Z,28.70
2018-05-31T19:47:36.217Z,28.50
2018-05-31T19:49:39.902Z,28.50
2018-05-31T19:51:48.557Z,28.50
2018-05-31T19:53:51.642Z,28.40
2018-05-31T19:55:54.580Z,28.30
2018-05-31T19:58:04.112Z,28.10
2018-05-31T20:00:13.525Z,28.00
2018-05-31T20:02:22.052Z,28.00
2018-05-31T20:04:25.189Z,28.00
2018-05-31T20:06:28.140Z,28.00
2018-05-31T20:08:31.153Z,28.00
2018-05-31T20:10:34.992Z,28.10
2018-05-31T20:12:38.072Z,28.10
2018-05-31T20:14:40.992Z,28.10
2018-05-31T20:16:44.715Z,28.10
2018-05-31T20:18:48.440Z,28.10
2018-05-31T20:20:51.369Z,28.10
2018-05-31T20:22:54.383Z,28.10
2018-05-31T20:24:58.107Z,28.10
2018-05-31T20:27:01.046Z,28.10
2018-05-31T20:29:04.865Z,28.10
2018-05-31T20:31:07.901Z,28.10
2018-05-31T20:33:10.821Z,28.10
2018-05-31T20:35:14.505Z,28.10
2018-05-31T20:37:17.845Z,28.10
2018-05-31T20:39:20.752Z,28.10
2018-05-31T20:41:23.681Z,28.00
2018-05-31T20:43:27.493Z,28.00
2018-05-31T20:45:31.150Z,28.00
2018-05-31T20:47:34.073Z,28.00
2018-05-31T20:49:37.852Z,27.90
2018-05-31T20:51:41.529Z,27.90
2018-05-31T20:53:44.443Z,27.90
2018-05-31T20:55:48.162Z,27.90
2018-05-31T20:57:51.080Z,27.90
2018-05-31T20:59:54.110Z,27.90
2018-05-31T21:01:57.053Z,27.80
2018-05-31T21:03:59.982Z,27.80
2018-05-31T21:06:03.661Z,27.70
2018-05-31T21:08:07.393Z,27.70
2018-05-31T21:10:10.325Z,27.70
2018-05-31T21:12:13.345Z,27.70
2018-05-31T21:14:17.152Z,27.60
2018-05-31T21:16:20.885Z,27.60
2018-05-31T21:18:23.808Z,27.60
2018-05-31T21:20:27.658Z,27.60
2018-05-31T21:22:30.605Z,27.60
2018-05-31T21:24:34.274Z,27.60
2018-05-31T21:26:37.257Z,27.60
2018-05-31T21:28:40.230Z,27.60
2018-05-31T21:30:43.360Z,27.50
2018-05-31T21:32:47.106Z,27.50
2018-05-31T21:34:50.046Z,27.50
2018-05-31T21:36:53.739Z,27.30
2018-05-31T21:38:57.627Z,27.30
2018-05-31T21:41:01.326Z,27.20
2018-05-31T21:43:05.025Z,27.10
2018-05-31T21:45:09.091Z,27.10
2018-05-31T21:47:12.014Z,27.10
2018-05-31T21:49:15.027Z,27.20
2018-05-31T21:51:18.863Z,27.20
2018-05-31T21:53:21.811Z,27.20
2018-05-31T21:55:24.771Z,27.30
2018-05-31T21:57:28.693Z,27.20
2018-05-31T21:59:32.396Z,27.30
2018-05-31T22:01:36.080Z,27.20
2018-05-31T22:03:39.040Z,27.20
2018-05-31T22:05:42.001Z,27.20
2018-05-31T22:07:44.920Z,27.20
2018-05-31T22:09:47.956Z,27.20
2018-05-31T22:11:50.876Z,27.20
2018-05-31T22:13:53.805Z,27.10
2018-05-31T22:15:56.979Z,27.20
2018-05-31T22:17:59.917Z,27.20
2018-05-31T22:20:02.952Z,27.20
2018-05-31T22:22:06.688Z,27.10
2018-05-31T22:24:09.757Z,27.10
2018-05-31T22:26:12.684Z,27.10
2018-05-31T22:28:15.615Z,27.20
2018-05-31T22:30:18.527Z,27.20
2018-05-31T22:32:21.448Z,27.20
2018-05-31T22:34:26.182Z,27.20
2018-05-31T22:36:29.887Z,27.20
2018-05-31T22:38:32.869Z,27.20
2018-05-31T22:40:36.161Z,27.10
2018-05-31T22:42:39.831Z,27.10
2018-05-31T22:44:43.523Z,27.10
2018-05-31T22:46:46.743Z,27.10
2018-05-31T22:48:50.425Z,27.00
2018-05-31T22:50:53.401Z,27.10
2018-05-31T22:52:57.227Z,27.00
2018-05-31T22:55:01.033Z,27.10
2018-05-31T22:57:04.708Z,27.00
2018-05-31T22:59:07.648Z,27.00
2018-05-31T23:01:10.548Z,27.10
2018-05-31T23:03:13.529Z,27.10
2018-05-31T23:05:16.558Z,27.10
2018-05-31T23:07:20.260Z,27.00
2018-05-31T23:09:23.958Z,27.10
2018-05-31T23:11:27.720Z,27.10
2018-05-31T23:13:30.745Z,27.10
2018-05-31T23:15:34.414Z,27.10
2018-05-31T23:17:37.351Z,27.10
2018-05-31T23:19:40.275Z,27.10
2018-05-31T23:21:43.200Z,27.10
2018-05-31T23:23:46.172Z,27.10
2018-05-31T23:25:49.860Z,27.20
2018-05-31T23:27:53.545Z,27.10
2018-05-31T23:29:58.200Z,27.10
2018-05-31T23:32:01.134Z,27.20
2018-05-31T23:34:04.158Z,27.20
2018-05-31T23:36:08.065Z,27.10
2018-05-31T23:38:10.992Z,27.10
2018-05-31T23:40:13.911Z,27.10
2018-05-31T23:42:17.745Z,27.10
2018-05-31T23:44:20.660Z,27.10
2018-05-31T23:46:23.620Z,27.10
2018-05-31T23:48:26.678Z,27.10
2018-05-31T23:50:30.389Z,27.10
2018-05-31T23:52:33.300Z,27.10
2018-05-31T23:54:36.257Z,27.10
2018-05-31T23:56:39.201Z,27.10
2018-05-31T23:58:42.949Z,27.00
